sensor_id;sensor_type;location;lat;lon;timestamp;temperature;humidity
7598;DHT22;3840;59.32098800;18.06423600;2023-05-15T00:01:37;11.60;99.90
7598;DHT22;3840;59.32098800;18.06423600;2023-05-15T00:04:02;11.60;99.90
7598;DHT22;3840;59.32098800;18.06423600;2023-05-15T00:06:28;11.60;99.90
7598;DHT22;3840;59.32098800;18.06423600;2023-05-15T00:08:54;11.50;99.90
7598;DHT22;3840;59.32098800;18.06423600;2023-05-15T00:11:20;11.40;99.90
7598;DHT22;3840;59.32098800;18.06423600;2023-05-15T00:13:48;11.30;99.90
7598;DHT22;3840;59.32098800;18.06423600;2023-05-15T00:16:14;11.30;99.90
7598;DHT22;3840;59.32098800;18.06423600;2023-05-15T00:18:40;11.20;99.90
7598;DHT22;3840;59.32098800;18.06423600;2023-05-15T00:21:05;11.10;99.90
7598;DHT22;3840;59.32098800;18.06423600;2023-05-15T00:23:31;11.00;99.90
7598;DHT22;3840;59.32098800;18.06423600;2023-05-15T00:25:57;11.00;99.90
7598;DHT22;3840;59.32098800;18.06423600;2023-05-15T00:28:23;10.90;99.90
7598;DHT22;3840;59.32098800;18.06423600;2023-05-15T00:30:48;10.90;99.90
7598;DHT22;3840;59.32098800;18.06423600;2023-05-15T00:33:14;10.90;99.90
7598;DHT22;3840;59.32098800;18.06423600;2023-05-15T00:35:41;11.00;99.90
7598;DHT22;3840;59.32098800;18.06423600;2023-05-15T00:38:07;11.00;99.90
7598;DHT22;3840;59.32098800;18.06423600;2023-05-15T00:40:33;11.00;99.90
7598;DHT22;3840;59.32098800;18.06423600;2023-05-15T00:43:01;11.00;99.90
7598;DHT22;3840;59.32098800;18.06423600;2023-05-15T00:45:28;11.10;99.90
7598;DHT22;3840;59.32098800;18.06423600;2023-05-15T00:47:56;11.10;99.90
7598;DHT22;3840;59.32098800;18.06423600;2023-05-15T00:50:22;11.10;99.90
7598;DHT22;3840;59.32098800;18.06423600;2023-05-15T00:52:49;11.00;99.90
7598;DHT22;3840;59.32098800;18.06423600;2023-05-15T00:55:15;11.00;99.90
7598;DHT22;3840;59.32098800;18.06423600;2023-05-15T00:57:42;11.00;99.90
7598;DHT22;3840;59.32098800;18.06423600;2023-05-15T01:00:08;10.90;99.90
7598;DHT22;3840;59.32098800;18.06423600;2023-05-15T01:02:37;10.90;99.90
7598;DHT22;3840;59.32098800;18.06423600;2023-05-15T01:05:04;10.90;99.90
7598;DHT22;3840;59.32098800;18.06423600;2023-05-15T01:07:34;10.80;99.90
7598;DHT22;3840;59.32098800;18.06423600;2023-05-15T01:10:04;10.90;99.90
7598;DHT22;3840;59.32098800;18.06423600;2023-05-15T01:12:31;10.80;99.90
7598;DHT22;3840;59.32098800;18.06423600;2023-05-15T01:14:57;10.90;99.90
7598;DHT22;3840;59.32098800;18.06423600;2023-05-15T01:17:23;10.80;99.90
7598;DHT22;3840;59.32098800;18.06423600;2023-05-15T01:19:50;10.70;99.90
7598;DHT22;3840;59.32098800;18.06423600;2023-05-15T01:27:53;10.40;99.90
7598;DHT22;3840;59.32098800;18.06423600;2023-05-15T01:30:32;10.30;99.90
7598;DHT22;3840;59.32098800;18.06423600;2023-05-15T01:33:02;10.30;99.90
7598;DHT22;3840;59.32098800;18.06423600;2023-05-15T01:35:43;10.30;99.90
7598;DHT22;3840;59.32098800;18.06423600;2023-05-15T01:40:43;10.30;99.90
7598;DHT22;3840;59.32098800;18.06423600;2023-05-15T01:43:12;10.40;99.90
7598;DHT22;3840;59.32098800;18.06423600;2023-05-15T01:45:40;10.40;99.90
7598;DHT22;3840;59.32098800;18.06423600;2023-05-15T01:48:07;10.40;99.90
7598;DHT22;3840;59.32098800;18.06423600;2023-05-15T01:50:37;10.30;99.90
7598;DHT22;3840;59.32098800;18.06423600;2023-05-15T01:53:04;10.30;99.90
7598;DHT22;3840;59.32098800;18.06423600;2023-05-15T01:55:32;10.30;99.90
7598;DHT22;3840;59.32098800;18.06423600;2023-05-15T01:58:00;10.30;99.90
7598;DHT22;3840;59.32098800;18.06423600;2023-05-15T02:00:28;10.30;99.90
7598;DHT22;3840;59.32098800;18.06423600;2023-05-15T02:02:56;10.20;99.90
7598;DHT22;3840;59.32098800;18.06423600;2023-05-15T02:05:22;10.20;99.90
7598;DHT22;3840;59.32098800;18.06423600;2023-05-15T02:07:48;10.20;99.90
7598;DHT22;3840;59.32098800;18.06423600;2023-05-15T02:10:16;10.20;99.90
7598;DHT22;3840;59.32098800;18.06423600;2023-05-15T02:12:42;10.30;99.90
7598;DHT22;3840;59.32098800;18.06423600;2023-05-15T02:15:09;10.30;99.90
7598;DHT22;3840;59.32098800;18.06423600;2023-05-15T02:17:35;10.30;99.90
7598;DHT22;3840;59.32098800;18.06423600;2023-05-15T02:20:02;10.30;99.90
7598;DHT22;3840;59.32098800;18.06423600;2023-05-15T02:22:29;10.30;99.90
7598;DHT22;3840;59.32098800;18.06423600;2023-05-15T02:24:55;10.30;99.90
7598;DHT22;3840;59.32098800;18.06423600;2023-05-15T02:27:31;10.30;99.90
7598;DHT22;3840;59.32098800;18.06423600;2023-05-15T02:32:41;10.20;99.90
7598;DHT22;3840;59.32098800;18.06423600;2023-05-15T02:37:38;10.20;99.90
7598;DHT22;3840;59.32098800;18.06423600;2023-05-15T02:40:10;10.20;99.90
7598;DHT22;3840;59.32098800;18.06423600;2023-05-15T02:42:39;10.30;99.90
7598;DHT22;3840;59.32098800;18.06423600;2023-05-15T02:45:07;10.40;99.90
7598;DHT22;3840;59.32098800;18.06423600;2023-05-15T02:47:34;10.50;99.90
7598;DHT22;3840;59.32098800;18.06423600;2023-05-15T02:50:00;10.80;99.90
7598;DHT22;3840;59.32098800;18.06423600;2023-05-15T02:52:25;11.00;99.90
7598;DHT22;3840;59.32098800;18.06423600;2023-05-15T02:54:53;11.20;99.90
7598;DHT22;3840;59.32098800;18.06423600;2023-05-15T02:57:18;11.40;99.90
7598;DHT22;3840;59.32098800;18.06423600;2023-05-15T02:59:45;11.70;99.90
7598;DHT22;3840;59.32098800;18.06423600;2023-05-15T03:02:11;12.20;99.90
7598;DHT22;3840;59.32098800;18.06423600;2023-05-15T03:04:37;12.30;99.90
7598;DHT22;3840;59.32098800;18.06423600;2023-05-15T03:07:02;12.60;99.90
7598;DHT22;3840;59.32098800;18.06423600;2023-05-15T03:09:28;12.60;99.90
7598;DHT22;3840;59.32098800;18.06423600;2023-05-15T03:11:54;12.50;99.90
7598;DHT22;3840;59.32098800;18.06423600;2023-05-15T03:14:20;12.30;99.90
7598;DHT22;3840;59.32098800;18.06423600;2023-05-15T03:16:45;12.10;99.90
7598;DHT22;3840;59.32098800;18.06423600;2023-05-15T03:19:11;11.90;99.90
7598;DHT22;3840;59.32098800;18.06423600;2023-05-15T03:21:37;12.20;99.90
7598;DHT22;3840;59.32098800;18.06423600;2023-05-15T03:24:02;12.40;99.90
7598;DHT22;3840;59.32098800;18.06423600;2023-05-15T03:26:28;12.40;99.90
7598;DHT22;3840;59.32098800;18.06423600;2023-05-15T03:28:56;12.20;99.90
7598;DHT22;3840;59.32098800;18.06423600;2023-05-15T03:31:22;12.30;99.90
7598;DHT22;3840;59.32098800;18.06423600;2023-05-15T03:33:47;12.50;99.90
7598;DHT22;3840;59.32098800;18.06423600;2023-05-15T03:36:15;12.20;99.90
7598;DHT22;3840;59.32098800;18.06423600;2023-05-15T03:38:40;11.90;99.90
7598;DHT22;3840;59.32098800;18.06423600;2023-05-15T03:41:08;12.20;99.90
7598;DHT22;3840;59.32098800;18.06423600;2023-05-15T03:43:34;12.80;99.90
7598;DHT22;3840;59.32098800;18.06423600;2023-05-15T03:46:00;13.50;99.90
7598;DHT22;3840;59.32098800;18.06423600;2023-05-15T03:48:26;13.80;99.90
7598;DHT22;3840;59.32098800;18.06423600;2023-05-15T03:50:51;14.40;99.90
7598;DHT22;3840;59.32098800;18.06423600;2023-05-15T03:53:17;14.80;99.90
7598;DHT22;3840;59.32098800;18.06423600;2023-05-15T03:55:43;15.10;99.90
7598;DHT22;3840;59.32098800;18.06423600;2023-05-15T03:58:09;15.30;99.90
7598;DHT22;3840;59.32098800;18.06423600;2023-05-15T04:00:35;15.20;99.90
7598;DHT22;3840;59.32098800;18.06423600;2023-05-15T04:03:00;14.40;99.90
7598;DHT22;3840;59.32098800;18.06423600;2023-05-15T04:05:26;13.70;99.90
7598;DHT22;3840;59.32098800;18.06423600;2023-05-15T04:07:52;13.30;99.90
7598;DHT22;3840;59.32098800;18.06423600;2023-05-15T04:10:18;13.40;99.90
7598;DHT22;3840;59.32098800;18.06423600;2023-05-15T04:12:44;13.00;99.90
7598;DHT22;3840;59.32098800;18.06423600;2023-05-15T04:15:21;12.80;99.90
7598;DHT22;3840;59.32098800;18.06423600;2023-05-15T04:17:48;12.90;99.90
7598;DHT22;3840;59.32098800;18.06423600;2023-05-15T04:20:17;12.90;99.90
7598;DHT22;3840;59.32098800;18.06423600;2023-05-15T04:22:43;12.80;99.90
7598;DHT22;3840;59.32098800;18.06423600;2023-05-15T04:25:11;13.50;99.90
7598;DHT22;3840;59.32098800;18.06423600;2023-05-15T04:27:37;14.10;99.90
7598;DHT22;3840;59.32098800;18.06423600;2023-05-15T04:30:04;14.30;99.90
7598;DHT22;3840;59.32098800;18.06423600;2023-05-15T04:32:30;14.80;99.90
7598;DHT22;3840;59.32098800;18.06423600;2023-05-15T04:35:01;14.80;99.90
7598;DHT22;3840;59.32098800;18.06423600;2023-05-15T04:37:27;14.50;99.90
7598;DHT22;3840;59.32098800;18.06423600;2023-05-15T04:39:54;13.90;99.90
7598;DHT22;3840;59.32098800;18.06423600;2023-05-15T04:42:19;13.30;99.90
7598;DHT22;3840;59.32098800;18.06423600;2023-05-15T04:44:45;12.90;99.90
7598;DHT22;3840;59.32098800;18.06423600;2023-05-15T04:47:12;12.80;99.90
7598;DHT22;3840;59.32098800;18.06423600;2023-05-15T04:49:38;12.60;99.90
7598;DHT22;3840;59.32098800;18.06423600;2023-05-15T04:52:04;12.60;99.90
7598;DHT22;3840;59.32098800;18.06423600;2023-05-15T04:54:30;12.60;99.90
7598;DHT22;3840;59.32098800;18.06423600;2023-05-15T04:56:56;12.50;99.90
7598;DHT22;3840;59.32098800;18.06423600;2023-05-15T04:59:22;12.50;99.90
7598;DHT22;3840;59.32098800;18.06423600;2023-05-15T05:01:49;12.40;99.90
7598;DHT22;3840;59.32098800;18.06423600;2023-05-15T05:04:15;12.50;99.90
7598;DHT22;3840;59.32098800;18.06423600;2023-05-15T05:06:44;12.50;99.90
7598;DHT22;3840;59.32098800;18.06423600;2023-05-15T05:09:11;12.60;99.90
7598;DHT22;3840;59.32098800;18.06423600;2023-05-15T05:11:38;12.60;99.90
7598;DHT22;3840;59.32098800;18.06423600;2023-05-15T05:14:10;12.70;99.90
7598;DHT22;3840;59.32098800;18.06423600;2023-05-15T05:16:36;12.80;99.90
7598;DHT22;3840;59.32098800;18.06423600;2023-05-15T05:19:02;12.90;99.90
7598;DHT22;3840;59.32098800;18.06423600;2023-05-15T05:21:29;13.00;99.90
7598;DHT22;3840;59.32098800;18.06423600;2023-05-15T05:23:55;13.20;99.90
7598;DHT22;3840;59.32098800;18.06423600;2023-05-15T05:26:20;13.40;99.90
7598;DHT22;3840;59.32098800;18.06423600;2023-05-15T05:28:47;13.40;99.90
7598;DHT22;3840;59.32098800;18.06423600;2023-05-15T05:31:12;13.60;99.90
7598;DHT22;3840;59.32098800;18.06423600;2023-05-15T05:33:38;13.70;99.90
7598;DHT22;3840;59.32098800;18.06423600;2023-05-15T05:36:04;13.70;99.90
7598;DHT22;3840;59.32098800;18.06423600;2023-05-15T05:38:31;13.80;99.90
7598;DHT22;3840;59.32098800;18.06423600;2023-05-15T05:40:56;14.00;99.90
7598;DHT22;3840;59.32098800;18.06423600;2023-05-15T05:43:24;14.10;99.90
7598;DHT22;3840;59.32098800;18.06423600;2023-05-15T05:45:50;14.20;99.90
7598;DHT22;3840;59.32098800;18.06423600;2023-05-15T05:48:16;14.20;99.90
7598;DHT22;3840;59.32098800;18.06423600;2023-05-15T05:50:42;14.30;99.90
7598;DHT22;3840;59.32098800;18.06423600;2023-05-15T05:53:07;14.40;99.90
7598;DHT22;3840;59.32098800;18.06423600;2023-05-15T05:55:33;14.50;99.90
7598;DHT22;3840;59.32098800;18.06423600;2023-05-15T05:57:59;14.60;99.90
7598;DHT22;3840;59.32098800;18.06423600;2023-05-15T06:00:25;14.70;99.90
7598;DHT22;3840;59.32098800;18.06423600;2023-05-15T06:02:58;14.90;99.90
7598;DHT22;3840;59.32098800;18.06423600;2023-05-15T06:05:27;15.10;99.90
7598;DHT22;3840;59.32098800;18.06423600;2023-05-15T06:07:54;15.30;99.90
7598;DHT22;3840;59.32098800;18.06423600;2023-05-15T06:10:20;15.40;99.90
7598;DHT22;3840;59.32098800;18.06423600;2023-05-15T06:12:47;15.40;99.90
7598;DHT22;3840;59.32098800;18.06423600;2023-05-15T06:15:14;15.20;99.90
7598;DHT22;3840;59.32098800;18.06423600;2023-05-15T06:17:40;15.30;99.90
7598;DHT22;3840;59.32098800;18.06423600;2023-05-15T06:20:06;15.10;99.90
7598;DHT22;3840;59.32098800;18.06423600;2023-05-15T06:22:38;15.20;99.90
7598;DHT22;3840;59.32098800;18.06423600;2023-05-15T06:25:04;15.20;99.90
7598;DHT22;3840;59.32098800;18.06423600;2023-05-15T06:27:31;15.40;99.90
7598;DHT22;3840;59.32098800;18.06423600;2023-05-15T06:29:56;15.60;99.90
7598;DHT22;3840;59.32098800;18.06423600;2023-05-15T06:32:22;15.80;99.90
7598;DHT22;3840;59.32098800;18.06423600;2023-05-15T06:34:48;15.90;99.90
7598;DHT22;3840;59.32098800;18.06423600;2023-05-15T06:37:14;16.00;99.90
7598;DHT22;3840;59.32098800;18.06423600;2023-05-15T06:39:40;16.20;99.90
7598;DHT22;3840;59.32098800;18.06423600;2023-05-15T06:42:05;16.40;99.90
7598;DHT22;3840;59.32098800;18.06423600;2023-05-15T06:44:31;16.40;99.90
7598;DHT22;3840;59.32098800;18.06423600;2023-05-15T06:46:58;16.60;99.90
7598;DHT22;3840;59.32098800;18.06423600;2023-05-15T06:49:24;16.60;99.90
7598;DHT22;3840;59.32098800;18.06423600;2023-05-15T06:51:50;16.60;99.90
7598;DHT22;3840;59.32098800;18.06423600;2023-05-15T06:54:16;16.80;99.90
7598;DHT22;3840;59.32098800;18.06423600;2023-05-15T06:56:42;16.90;99.90
7598;DHT22;3840;59.32098800;18.06423600;2023-05-15T06:59:08;17.00;99.90
7598;DHT22;3840;59.32098800;18.06423600;2023-05-15T07:01:34;16.70;99.90
7598;DHT22;3840;59.32098800;18.06423600;2023-05-15T07:04:00;16.70;99.90
7598;DHT22;3840;59.32098800;18.06423600;2023-05-15T07:06:26;16.70;99.90
7598;DHT22;3840;59.32098800;18.06423600;2023-05-15T07:08:52;16.80;99.90
7598;DHT22;3840;59.32098800;18.06423600;2023-05-15T07:11:18;16.80;99.90
7598;DHT22;3840;59.32098800;18.06423600;2023-05-15T07:13:44;16.70;99.90
7598;DHT22;3840;59.32098800;18.06423600;2023-05-15T07:16:09;16.80;99.90
7598;DHT22;3840;59.32098800;18.06423600;2023-05-15T07:18:35;16.90;99.90
7598;DHT22;3840;59.32098800;18.06423600;2023-05-15T07:21:01;17.10;99.90
7598;DHT22;3840;59.32098800;18.06423600;2023-05-15T07:23:27;17.20;99.90
7598;DHT22;3840;59.32098800;18.06423600;2023-05-15T07:25:55;17.20;99.90
7598;DHT22;3840;59.32098800;18.06423600;2023-05-15T07:28:21;17.30;99.90
7598;DHT22;3840;59.32098800;18.06423600;2023-05-15T07:30:47;17.30;99.90
7598;DHT22;3840;59.32098800;18.06423600;2023-05-15T07:33:13;17.30;99.90
7598;DHT22;3840;59.32098800;18.06423600;2023-05-15T07:35:38;17.50;99.90
7598;DHT22;3840;59.32098800;18.06423600;2023-05-15T07:38:04;17.40;99.90
7598;DHT22;3840;59.32098800;18.06423600;2023-05-15T07:40:30;17.50;99.90
7598;DHT22;3840;59.32098800;18.06423600;2023-05-15T07:42:56;17.60;99.90
7598;DHT22;3840;59.32098800;18.06423600;2023-05-15T07:45:21;17.80;99.90
7598;DHT22;3840;59.32098800;18.06423600;2023-05-15T07:47:48;18.00;99.90
7598;DHT22;3840;59.32098800;18.06423600;2023-05-15T07:50:15;18.10;99.90
7598;DHT22;3840;59.32098800;18.06423600;2023-05-15T07:52:40;18.20;99.90
7598;DHT22;3840;59.32098800;18.06423600;2023-05-15T07:55:08;18.30;99.90
7598;DHT22;3840;59.32098800;18.06423600;2023-05-15T07:57:34;18.30;99.90
7598;DHT22;3840;59.32098800;18.06423600;2023-05-15T08:00:00;18.40;99.90
7598;DHT22;3840;59.32098800;18.06423600;2023-05-15T08:02:31;18.50;99.90
7598;DHT22;3840;59.32098800;18.06423600;2023-05-15T08:04:57;18.60;99.90
7598;DHT22;3840;59.32098800;18.06423600;2023-05-15T08:07:23;18.60;99.90
7598;DHT22;3840;59.32098800;18.06423600;2023-05-15T08:09:48;18.80;99.90
7598;DHT22;3840;59.32098800;18.06423600;2023-05-15T08:12:21;19.00;99.90
7598;DHT22;3840;59.32098800;18.06423600;2023-05-15T08:14:51;19.30;99.90
7598;DHT22;3840;59.32098800;18.06423600;2023-05-15T08:17:18;19.50;99.90
7598;DHT22;3840;59.32098800;18.06423600;2023-05-15T08:19:44;19.60;99.90
7598;DHT22;3840;59.32098800;18.06423600;2023-05-15T08:22:10;19.60;99.90
7598;DHT22;3840;59.32098800;18.06423600;2023-05-15T08:24:36;19.60;99.90
7598;DHT22;3840;59.32098800;18.06423600;2023-05-15T08:27:04;19.60;99.90
7598;DHT22;3840;59.32098800;18.06423600;2023-05-15T08:29:31;19.60;99.90
7598;DHT22;3840;59.32098800;18.06423600;2023-05-15T08:31:56;19.70;99.90
7598;DHT22;3840;59.32098800;18.06423600;2023-05-15T08:34:23;19.80;99.90
7598;DHT22;3840;59.32098800;18.06423600;2023-05-15T08:36:49;19.90;99.90
7598;DHT22;3840;59.32098800;18.06423600;2023-05-15T08:39:15;20.00;99.90
7598;DHT22;3840;59.32098800;18.06423600;2023-05-15T08:41:57;20.10;99.90
7598;DHT22;3840;59.32098800;18.06423600;2023-05-15T08:44:25;20.10;99.90
7598;DHT22;3840;59.32098800;18.06423600;2023-05-15T08:46:52;20.20;99.90
7598;DHT22;3840;59.32098800;18.06423600;2023-05-15T08:51:51;20.50;99.90
7598;DHT22;3840;59.32098800;18.06423600;2023-05-15T08:54:17;20.50;99.90
7598;DHT22;3840;59.32098800;18.06423600;2023-05-15T08:56:43;20.70;99.90
7598;DHT22;3840;59.32098800;18.06423600;2023-05-15T08:59:09;20.70;99.90
7598;DHT22;3840;59.32098800;18.06423600;2023-05-15T09:01:35;20.70;99.90
7598;DHT22;3840;59.32098800;18.06423600;2023-05-15T09:04:02;20.60;99.90
7598;DHT22;3840;59.32098800;18.06423600;2023-05-15T09:06:29;20.60;99.90
7598;DHT22;3840;59.32098800;18.06423600;2023-05-15T09:08:55;20.60;99.90
7598;DHT22;3840;59.32098800;18.06423600;2023-05-15T09:11:23;20.50;99.90
7598;DHT22;3840;59.32098800;18.06423600;2023-05-15T09:13:49;20.50;99.90
7598;DHT22;3840;59.32098800;18.06423600;2023-05-15T09:16:15;20.70;99.90
7598;DHT22;3840;59.32098800;18.06423600;2023-05-15T09:18:43;20.80;99.90
7598;DHT22;3840;59.32098800;18.06423600;2023-05-15T09:21:24;20.80;99.90
7598;DHT22;3840;59.32098800;18.06423600;2023-05-15T09:23:50;20.80;99.90
7598;DHT22;3840;59.32098800;18.06423600;2023-05-15T09:26:17;20.80;99.90
7598;DHT22;3840;59.32098800;18.06423600;2023-05-15T09:28:43;20.80;99.90
7598;DHT22;3840;59.32098800;18.06423600;2023-05-15T09:31:10;21.00;99.90
7598;DHT22;3840;59.32098800;18.06423600;2023-05-15T09:33:40;21.00;99.90
7598;DHT22;3840;59.32098800;18.06423600;2023-05-15T09:36:07;21.10;99.90
7598;DHT22;3840;59.32098800;18.06423600;2023-05-15T09:38:39;20.90;99.90
7598;DHT22;3840;59.32098800;18.06423600;2023-05-15T09:41:07;20.80;99.90
7598;DHT22;3840;59.32098800;18.06423600;2023-05-15T09:43:35;20.60;99.90
7598;DHT22;3840;59.32098800;18.06423600;2023-05-15T09:46:01;20.90;99.90
7598;DHT22;3840;59.32098800;18.06423600;2023-05-15T09:48:27;20.50;99.90
7598;DHT22;3840;59.32098800;18.06423600;2023-05-15T09:50:55;20.40;99.90
7598;DHT22;3840;59.32098800;18.06423600;2023-05-15T09:53:21;20.40;99.90
7598;DHT22;3840;59.32098800;18.06423600;2023-05-15T09:55:48;20.40;99.90
7598;DHT22;3840;59.32098800;18.06423600;2023-05-15T09:58:15;20.60;99.90
7598;DHT22;3840;59.32098800;18.06423600;2023-05-15T10:00:42;20.70;99.90
7598;DHT22;3840;59.32098800;18.06423600;2023-05-15T10:03:08;20.80;99.60
7598;DHT22;3840;59.32098800;18.06423600;2023-05-15T10:05:35;21.10;99.40
7598;DHT22;3840;59.32098800;18.06423600;2023-05-15T10:08:01;21.10;99.80
7598;DHT22;3840;59.32098800;18.06423600;2023-05-15T10:10:28;21.30;99.50
7598;DHT22;3840;59.32098800;18.06423600;2023-05-15T10:12:56;21.40;99.40
7598;DHT22;3840;59.32098800;18.06423600;2023-05-15T10:15:28;21.40;98.90
7598;DHT22;3840;59.32098800;18.06423600;2023-05-15T10:17:54;21.20;98.70
7598;DHT22;3840;59.32098800;18.06423600;2023-05-15T10:20:22;21.20;99.00
7598;DHT22;3840;59.32098800;18.06423600;2023-05-15T10:22:53;21.30;98.70
7598;DHT22;3840;59.32098800;18.06423600;2023-05-15T10:25:41;21.30;99.00
7598;DHT22;3840;59.32098800;18.06423600;2023-05-15T10:28:10;21.40;98.80
7598;DHT22;3840;59.32098800;18.06423600;2023-05-15T10:30:37;21.40;99.00
7598;DHT22;3840;59.32098800;18.06423600;2023-05-15T10:33:04;21.60;99.00
7598;DHT22;3840;59.32098800;18.06423600;2023-05-15T10:35:30;21.60;98.70
7598;DHT22;3840;59.32098800;18.06423600;2023-05-15T10:37:57;21.60;98.70
7598;DHT22;3840;59.32098800;18.06423600;2023-05-15T10:40:23;21.60;98.90
7598;DHT22;3840;59.32098800;18.06423600;2023-05-15T10:42:49;21.60;98.70
7598;DHT22;3840;59.32098800;18.06423600;2023-05-15T10:45:15;21.30;98.90
7598;DHT22;3840;59.32098800;18.06423600;2023-05-15T10:47:42;21.30;98.80
7598;DHT22;3840;59.32098800;18.06423600;2023-05-15T10:50:09;21.30;98.80
7598;DHT22;3840;59.32098800;18.06423600;2023-05-15T10:52:36;21.30;98.40
7598;DHT22;3840;59.32098800;18.06423600;2023-05-15T10:55:12;21.10;98.50
7598;DHT22;3840;59.32098800;18.06423600;2023-05-15T10:57:38;20.90;98.90
7598;DHT22;3840;59.32098800;18.06423600;2023-05-15T11:00:27;20.80;98.90
7598;DHT22;3840;59.32098800;18.06423600;2023-05-15T11:02:53;20.70;98.70
7598;DHT22;3840;59.32098800;18.06423600;2023-05-15T11:05:22;20.70;98.70
7598;DHT22;3840;59.32098800;18.06423600;2023-05-15T11:10:47;20.80;98.50
7598;DHT22;3840;59.32098800;18.06423600;2023-05-15T11:13:13;20.70;98.60
7598;DHT22;3840;59.32098800;18.06423600;2023-05-15T11:15:46;20.70;98.20
7598;DHT22;3840;59.32098800;18.06423600;2023-05-15T11:18:13;20.80;98.60
7598;DHT22;3840;59.32098800;18.06423600;2023-05-15T11:23:27;20.80;98.10
7598;DHT22;3840;59.32098800;18.06423600;2023-05-15T11:25:55;20.80;97.70
7598;DHT22;3840;59.32098800;18.06423600;2023-05-15T11:28:27;20.70;97.70
7598;DHT22;3840;59.32098800;18.06423600;2023-05-15T11:31:04;20.70;97.50
7598;DHT22;3840;59.32098800;18.06423600;2023-05-15T11:33:30;20.90;97.10
7598;DHT22;3840;59.32098800;18.06423600;2023-05-15T11:35:59;21.00;96.70
7598;DHT22;3840;59.32098800;18.06423600;2023-05-15T11:38:26;21.10;96.70
7598;DHT22;3840;59.32098800;18.06423600;2023-05-15T11:40:56;21.20;96.40
7598;DHT22;3840;59.32098800;18.06423600;2023-05-15T11:43:31;21.20;96.10
7598;DHT22;3840;59.32098800;18.06423600;2023-05-15T11:46:06;21.20;96.20
7598;DHT22;3840;59.32098800;18.06423600;2023-05-15T11:50:57;21.20;96.00
7598;DHT22;3840;59.32098800;18.06423600;2023-05-15T11:53:23;21.10;96.30
7598;DHT22;3840;59.32098800;18.06423600;2023-05-15T11:55:52;21.10;96.10
7598;DHT22;3840;59.32098800;18.06423600;2023-05-15T11:58:20;21.30;96.20
7598;DHT22;3840;59.32098800;18.06423600;2023-05-15T12:00:47;21.40;96.10
7598;DHT22;3840;59.32098800;18.06423600;2023-05-15T12:03:14;21.40;95.90
7598;DHT22;3840;59.32098800;18.06423600;2023-05-15T12:05:41;21.50;96.20
7598;DHT22;3840;59.32098800;18.06423600;2023-05-15T12:08:11;21.50;96.20
7598;DHT22;3840;59.32098800;18.06423600;2023-05-15T12:10:44;21.50;96.10
7598;DHT22;3840;59.32098800;18.06423600;2023-05-15T12:13:13;21.40;95.50
7598;DHT22;3840;59.32098800;18.06423600;2023-05-15T12:15:43;21.40;95.80
7598;DHT22;3840;59.32098800;18.06423600;2023-05-15T12:18:09;21.30;95.90
7598;DHT22;3840;59.32098800;18.06423600;2023-05-15T12:20:38;21.10;95.70
7598;DHT22;3840;59.32098800;18.06423600;2023-05-15T12:23:05;21.10;96.00
7598;DHT22;3840;59.32098800;18.06423600;2023-05-15T12:25:35;21.20;96.70
7598;DHT22;3840;59.32098800;18.06423600;2023-05-15T12:28:03;21.20;97.20
7598;DHT22;3840;59.32098800;18.06423600;2023-05-15T12:30:30;21.10;97.30
7598;DHT22;3840;59.32098800;18.06423600;2023-05-15T12:33:07;21.00;97.40
7598;DHT22;3840;59.32098800;18.06423600;2023-05-15T12:35:46;21.00;97.20
7598;DHT22;3840;59.32098800;18.06423600;2023-05-15T12:38:14;21.10;96.50
7598;DHT22;3840;59.32098800;18.06423600;2023-05-15T12:40:43;21.10;97.00
7598;DHT22;3840;59.32098800;18.06423600;2023-05-15T12:43:09;20.80;97.70
7598;DHT22;3840;59.32098800;18.06423600;2023-05-15T12:45:38;20.60;98.10
7598;DHT22;3840;59.32098800;18.06423600;2023-05-15T12:48:04;20.50;98.30
7598;DHT22;3840;59.32098800;18.06423600;2023-05-15T12:50:32;20.60;98.10
7598;DHT22;3840;59.32098800;18.06423600;2023-05-15T12:53:01;20.60;98.10
7598;DHT22;3840;59.32098800;18.06423600;2023-05-15T12:55:35;20.50;98.30
7598;DHT22;3840;59.32098800;18.06423600;2023-05-15T12:58:09;20.30;98.20
7598;DHT22;3840;59.32098800;18.06423600;2023-05-15T13:00:40;20.30;98.10
7598;DHT22;3840;59.32098800;18.06423600;2023-05-15T13:03:08;20.10;98.10
7598;DHT22;3840;59.32098800;18.06423600;2023-05-15T13:05:35;20.30;98.30
7598;DHT22;3840;59.32098800;18.06423600;2023-05-15T13:08:03;20.30;98.20
7598;DHT22;3840;59.32098800;18.06423600;2023-05-15T13:10:33;20.30;98.30
7598;DHT22;3840;59.32098800;18.06423600;2023-05-15T13:13:00;20.20;98.20
7598;DHT22;3840;59.32098800;18.06423600;2023-05-15T13:15:34;20.30;98.30
7598;DHT22;3840;59.32098800;18.06423600;2023-05-15T13:18:04;20.20;98.00
7598;DHT22;3840;59.32098800;18.06423600;2023-05-15T13:20:45;20.20;98.00
7598;DHT22;3840;59.32098800;18.06423600;2023-05-15T13:23:17;20.10;98.40
7598;DHT22;3840;59.32098800;18.06423600;2023-05-15T13:25:43;20.00;97.70
7598;DHT22;3840;59.32098800;18.06423600;2023-05-15T13:28:10;20.10;98.30
7598;DHT22;3840;59.32098800;18.06423600;2023-05-15T13:30:37;20.20;98.40
7598;DHT22;3840;59.32098800;18.06423600;2023-05-15T13:33:07;20.20;98.50
7598;DHT22;3840;59.32098800;18.06423600;2023-05-15T13:35:35;20.20;98.60
7598;DHT22;3840;59.32098800;18.06423600;2023-05-15T13:38:01;20.00;98.90
7598;DHT22;3840;59.32098800;18.06423600;2023-05-15T13:40:26;19.80;98.70
7598;DHT22;3840;59.32098800;18.06423600;2023-05-15T13:42:53;19.70;98.50
7598;DHT22;3840;59.32098800;18.06423600;2023-05-15T13:45:18;19.60;99.00
7598;DHT22;3840;59.32098800;18.06423600;2023-05-15T13:47:44;19.60;98.80
7598;DHT22;3840;59.32098800;18.06423600;2023-05-15T13:50:12;19.60;98.70
7598;DHT22;3840;59.32098800;18.06423600;2023-05-15T13:52:38;19.70;98.60
7598;DHT22;3840;59.32098800;18.06423600;2023-05-15T13:55:04;19.80;98.30
7598;DHT22;3840;59.32098800;18.06423600;2023-05-15T13:57:31;19.70;98.20
7598;DHT22;3840;59.32098800;18.06423600;2023-05-15T13:59:57;19.80;97.90